El Paso, TX

6:34 AM MST on January 29, 2015 (GMT -0700)
Holloman AFB | Change Station
CLOSE
Current Station
Airport
Location: Holloman AFB,
Elevation: 4094 ft
Nearby Weather Stations

Elev 4094 ft 32.85 °N, 106.11 °W | Updated 36 minutes ago

Partly Cloudy
Partly Cloudy
43 °F
Feels Like 43 °F
N
2
Wind Variable Wind from WSW

Today
High -- | Low -- °F
--% Chance of Precip.
Yesterday
High -- | Low -- °F
Precip. -- in
7:01 AM 5:37 PM
Waxing Gibbous, 74% visible
Pressure 30.11 in
Visibility 10.0 miles
Clouds Overcast 14000 ft
Dew Point 37 °F
Humidity 80%
Rainfall 0.00 in
Snow Depth Not available.
UV 0 out of 12
Pollen 5.00 out of 12
Air Quality Not available.
Flu Activity Not available.
METAR KHMN 291258Z AUTO 24002KT 10SM OVC140 06/03 A3021 RMK AO2 SLP195 T00620030 $

More Conditions Fewer Conditions

Pressure 30.11 in
Visibility 10.0 miles
Clouds Overcast 14000 ft
Dew Point 37 °F
Humidity 80%
Rainfall 0.00 in
Snow Depth Not available.
UV 0 out of 12
Pollen 5.00 out of 12
Air Quality Not available.
Flu Activity Not available.
METAR KHMN 291258Z AUTO 24002KT 10SM OVC140 06/03 A3021 RMK AO2 SLP195 T00620030 $

More Conditions Fewer Conditions

10-Day Weather Forecast

Almanac

Astronomy

Jan. 29, 2015 Rise Set
Actual Time
Civil Twilight
Nautical Twilight
Astronomical Twilight
Moon
Length of Visible Light
Length of Day
Tomorrow will be .
, % of the Moon is Illuminated

Today's Extremes

State Highs State Lows

Community

WunderPhotos

Upload Photos

1,791,427 photos uploaded!

WunderBlogs® & News

Nearby

Air Quality

  Air Quality AQ Index Pollutant
Not available.

Snow Depth

Station Depth Elevation

Earthquake Activity

City Distance Mag. Time & Date
Minimum magnitude displayed is 2.5.

Coastal Water Temperatures

Place Temperature

Nearby Weather Stations